Time;durP1;ratioP1;P1;durP2;ratioP2;P2;SDS_P1;SDS_P2;PMS_P1;PMS_P2;Temp;Humidity;BMP_temperature;BMP_pressure;BME280_temperature;BME280_humidity;BME280_pressure;Samples;Min_cycle;Max_cycle;Signal;HPM_P1;HPM_P2
2022/06/29 00:00:25;;;;;;;5.03;4.72;;;;;;;;;;5078298;28;20572;-56
2022/06/29 00:02:52;;;;;;;4.80;4.50;;;;;;;;;;5078442;28;20510;-56
2022/06/29 00:05:21;;;;;;;4.75;4.53;;;;;;;;;;5078338;28;20207;-56
2022/06/29 00:07:49;;;;;;;4.63;4.40;;;;;;;;;;5078353;28;20223;-56
2022/06/29 00:10:17;;;;;;;5.00;4.70;;;;;;;;;;5078612;28;20240;-56
2022/06/29 00:12:46;;;;;;;4.95;4.65;;;;;;;;;;5078258;28;20205;-56
2022/06/29 00:15:16;;;;;;;5.03;4.72;;;;;;;;;;5077741;28;20302;-56
2022/06/29 00:17:44;;;;;;;5.18;4.78;;;;;;;;;;5078268;28;20252;-56
2022/06/29 00:20:13;;;;;;;4.90;4.60;;;;;;;;;;5078440;28;20204;-56
2022/06/29 00:22:41;;;;;;;4.88;4.57;;;;;;;;;;5078553;28;20264;-56
2022/06/29 00:25:11;;;;;;;4.72;4.43;;;;;;;;;;5061065;28;20212;-57
2022/06/29 00:27:42;;;;;;;5.13;4.70;;;;;;;;;;5078520;28;20265;-56
2022/06/29 00:30:11;;;;;;;5.30;4.90;;;;;;;;;;5077738;28;20204;-56
2022/06/29 00:32:43;;;;;;;5.30;4.90;;;;;;;;;;5077613;28;20735;-56
2022/06/29 00:35:11;;;;;;;4.78;4.47;;;;;;;;;;5077339;28;20200;-56
2022/06/29 00:37:42;;;;;;;4.82;4.53;;;;;;;;;;5077033;28;20289;-56
2022/06/29 00:40:11;;;;;;;5.13;4.82;;;;;;;;;;5077412;28;20204;-56
2022/06/29 00:42:39;;;;;;;5.15;4.85;;;;;;;;;;5077444;28;20282;-56
2022/06/29 00:45:10;;;;;;;4.95;4.65;;;;;;;;;;5078006;28;20204;-56
2022/06/29 00:47:39;;;;;;;4.70;4.40;;;;;;;;;;5078006;28;20576;-56
2022/06/29 00:50:10;;;;;;;5.05;4.65;;;;;;;;;;5078264;28;20238;-56
2022/06/29 00:52:43;;;;;;;5.68;4.75;;;;;;;;;;5078296;28;20489;-56
2022/06/29 00:55:14;;;;;;;4.93;4.47;;;;;;;;;;5078183;28;20208;-56
2022/06/29 00:57:43;;;;;;;5.18;4.85;;;;;;;;;;5078170;28;20255;-56
2022/06/29 01:00:13;;;;;;;4.80;4.50;;;;;;;;;;5078092;28;20603;-56
2022/06/29 01:02:42;;;;;;;5.20;4.80;;;;;;;;;;5078130;28;20211;-56
2022/06/29 01:05:13;;;;;;;4.70;4.40;;;;;;;;;;5077278;28;20329;-56
2022/06/29 01:07:42;;;;;;;5.03;4.72;;;;;;;;;;5077565;28;20246;-56
2022/06/29 01:10:13;;;;;;;5.35;5.05;;;;;;;;;;5077856;28;20291;-56
2022/06/29 01:12:43;;;;;;;4.78;4.47;;;;;;;;;;5077686;28;20576;-56
2022/06/29 01:15:14;;;;;;;5.50;5.00;;;;;;;;;;5077550;28;20215;-56
2022/06/29 01:17:42;;;;;;;5.18;4.80;;;;;;;;;;5077886;28;20239;-56
2022/06/29 01:20:13;;;;;;;5.30;5.00;;;;;;;;;;5078395;28;20348;-56
2022/06/29 01:22:44;;;;;;;5.55;5.13;;;;;;;;;;5077364;28;20201;-56
2022/06/29 01:25:13;;;;;;;5.47;5.07;;;;;;;;;;5077811;28;20212;-56
2022/06/29 01:27:41;;;;;;;5.75;5.32;;;;;;;;;;5075879;28;20334;-56
2022/06/29 01:30:10;;;;;;;5.68;5.38;;;;;;;;;;5077693;28;20574;-56
2022/06/29 01:32:39;;;;;;;5.80;5.40;;;;;;;;;;5076827;28;20239;-55
2022/06/29 01:35:09;;;;;;;5.57;5.18;;;;;;;;;;5077938;28;20266;-56
2022/06/29 01:37:37;;;;;;;6.03;5.38;;;;;;;;;;5077370;28;20240;-56
2022/06/29 01:40:10;;;;;;;5.60;5.30;;;;;;;;;;5059985;28;20287;-55
2022/06/29 01:42:38;;;;;;;5.45;5.15;;;;;;;;;;5077596;28;20219;-56
2022/06/29 01:45:11;;;;;;;5.82;5.32;;;;;;;;;;5077374;28;20204;-56
2022/06/29 01:47:39;;;;;;;5.55;5.15;;;;;;;;;;5077581;28;20229;-56
2022/06/29 01:50:08;;;;;;;5.65;5.15;;;;;;;;;;5077541;28;20459;-56
2022/06/29 01:52:37;;;;;;;5.82;5.40;;;;;;;;;;5080039;28;20565;-56
2022/06/29 01:55:08;;;;;;;6.03;5.63;;;;;;;;;;5081387;28;20204;-56
2022/06/29 01:57:39;;;;;;;6.20;5.70;;;;;;;;;;5080962;28;20273;-56
2022/06/29 02:00:09;;;;;;;5.72;5.40;;;;;;;;;;5080971;28;20821;-56
2022/06/29 02:02:37;;;;;;;5.57;5.18;;;;;;;;;;5081293;28;20238;-57
2022/06/29 02:05:08;;;;;;;5.78;5.38;;;;;;;;;;5081067;28;20208;-56
2022/06/29 02:07:37;;;;;;;6.43;5.82;;;;;;;;;;5081143;28;20238;-55
2022/06/29 02:10:10;;;;;;;5.53;5.22;;;;;;;;;;5080607;28;20204;-55
2022/06/29 02:12:40;;;;;;;6.13;5.72;;;;;;;;;;5080494;28;20208;-56
2022/06/29 02:15:09;;;;;;;6.15;5.60;;;;;;;;;;5081111;28;20482;-56
2022/06/29 02:17:42;;;;;;;5.95;5.55;;;;;;;;;;5080240;28;20236;-55
2022/06/29 02:20:12;;;;;;;5.82;5.30;;;;;;;;;;5080750;28;20208;-55
2022/06/29 02:22:42;;;;;;;5.72;5.32;;;;;;;;;;5079990;28;20270;-56
2022/06/29 02:25:11;;;;;;;5.07;4.72;;;;;;;;;;5079726;28;20200;-56
2022/06/29 02:27:42;;;;;;;5.75;5.35;;;;;;;;;;5080119;28;20258;-56
2022/06/29 02:30:12;;;;;;;5.80;5.40;;;;;;;;;;5080666;28;20579;-55
2022/06/29 02:35:29;;;;;;;6.03;5.50;;;;;;;;;;5079849;28;20286;-56
2022/06/29 02:37:59;;;;;;;5.88;5.47;;;;;;;;;;5079678;28;20236;-56
2022/06/29 02:40:27;;;;;;;6.28;5.68;;;;;;;;;;5080013;28;20212;-56
2022/06/29 02:43:01;;;;;;;6.32;5.90;;;;;;;;;;5080271;28;20291;-56
2022/06/29 02:45:30;;;;;;;5.78;5.38;;;;;;;;;;5080457;28;20589;-56
2022/06/29 02:47:58;;;;;;;5.80;5.40;;;;;;;;;;5080018;28;20208;-56
2022/06/29 02:50:29;;;;;;;5.82;5.43;;;;;;;;;;5075662;28;20196;-56
2022/06/29 02:52:59;;;;;;;6.10;5.70;;;;;;;;;;5080194;28;20212;-55
2022/06/29 02:55:28;;;;;;;6.00;5.60;;;;;;;;;;5079799;28;20205;-55
2022/06/29 02:57:58;;;;;;;5.88;5.45;;;;;;;;;;5079841;28;20228;-56
2022/06/29 03:00:29;;;;;;;5.63;5.30;;;;;;;;;;5079806;28;20203;-56
2022/06/29 03:02:58;;;;;;;5.68;5.28;;;;;;;;;;5079029;28;20234;-57
2022/06/29 03:05:27;;;;;;;5.90;5.40;;;;;;;;;;5079583;28;20204;-56
2022/06/29 03:07:57;;;;;;;6.10;5.70;;;;;;;;;;5079099;28;20483;-56
2022/06/29 03:10:27;;;;;;;6.20;5.80;;;;;;;;;;5079682;28;20476;-55
2022/06/29 03:12:56;;;;;;;5.57;5.18;;;;;;;;;;5079778;28;20204;-56
2022/06/29 03:15:25;;;;;;;6.10;5.70;;;;;;;;;;5079181;28;20230;-56
2022/06/29 03:17:58;;;;;;;5.95;5.55;;;;;;;;;;5068972;28;20220;-56
2022/06/29 03:20:29;;;;;;;5.97;5.63;;;;;;;;;;5078660;28;20295;-55
2022/06/29 03:23:01;;;;;;;5.93;5.53;;;;;;;;;;5078991;28;20212;-56
2022/06/29 03:25:31;;;;;;;5.95;5.65;;;;;;;;;;5078437;28;20203;-56
2022/06/29 03:28:00;;;;;;;6.28;5.88;;;;;;;;;;5077342;28;20463;-56
2022/06/29 03:30:31;;;;;;;6.65;5.78;;;;;;;;;;5078628;28;20295;-56
2022/06/29 03:33:02;;;;;;;6.28;5.88;;;;;;;;;;5079202;28;20214;-56
2022/06/29 03:35:30;;;;;;;6.40;5.90;;;;;;;;;;5078545;28;20556;-56
2022/06/29 03:37:58;;;;;;;6.60;6.20;;;;;;;;;;5077856;28;20244;-56
2022/06/29 03:40:30;;;;;;;6.30;5.90;;;;;;;;;;5078873;28;20230;-56
2022/06/29 03:43:00;;;;;;;6.40;6.00;;;;;;;;;;5078385;28;20287;-56
2022/06/29 03:45:28;;;;;;;6.28;5.88;;;;;;;;;;5078866;28;20217;-56
2022/06/29 03:47:57;;;;;;;6.70;6.30;;;;;;;;;;5078515;28;20287;-55
2022/06/29 03:50:30;;;;;;;6.10;5.60;;;;;;;;;;5077940;28;20343;-56
2022/06/29 03:52:59;;;;;;;6.05;5.65;;;;;;;;;;5078540;28;20504;-56
2022/06/29 03:55:28;;;;;;;6.20;5.80;;;;;;;;;;5078472;28;20204;-56
2022/06/29 03:57:57;;;;;;;6.85;6.25;;;;;;;;;;5078255;28;20293;-55
2022/06/29 04:00:25;;;;;;;6.47;5.97;;;;;;;;;;5078018;28;20204;-56
2022/06/29 04:02:59;;;;;;;6.80;6.30;;;;;;;;;;5078185;28;20244;-56
2022/06/29 04:05:29;;;;;;;6.65;6.15;;;;;;;;;;5076569;28;20476;-55
2022/06/29 04:07:57;;;;;;;7.00;6.60;;;;;;;;;;5077806;28;20203;-56
2022/06/29 04:10:27;;;;;;;6.72;6.32;;;;;;;;;;5077661;28;20822;-56
2022/06/29 04:12:58;;;;;;;6.60;6.10;;;;;;;;;;5077926;28;20269;-55
2022/06/29 04:15:27;;;;;;;6.90;6.50;;;;;;;;;;5077160;28;20576;-56
2022/06/29 04:17:55;;;;;;;6.35;5.90;;;;;;;;;;5077578;28;20623;-56
2022/06/29 04:23:12;;;;;;;6.93;6.43;;;;;;;;;;5077659;28;20337;-56
2022/06/29 04:25:40;;;;;;;6.55;6.15;;;;;;;;;;5077440;28;20227;-56
2022/06/29 04:28:08;;;;;;;6.65;6.15;;;;;;;;;;5076938;28;20261;-55
2022/06/29 04:30:37;;;;;;;6.65;6.25;;;;;;;;;;5077393;28;20657;-56
2022/06/29 04:33:07;;;;;;;6.72;6.22;;;;;;;;;;5077696;28;20215;-56
2022/06/29 04:35:37;;;;;;;6.55;6.15;;;;;;;;;;5077275;28;20542;-55
2022/06/29 04:38:06;;;;;;;6.72;6.32;;;;;;;;;;5077260;28;20232;-56
2022/06/29 04:40:37;;;;;;;6.65;6.25;;;;;;;;;;5077058;28;20600;-56
2022/06/29 04:43:06;;;;;;;6.38;5.97;;;;;;;;;;5077357;28;20715;-56
2022/06/29 04:48:20;;;;;;;6.80;6.40;;;;;;;;;;5076391;28;20227;-55
2022/06/29 04:50:49;;;;;;;7.38;6.85;;;;;;;;;;5076147;28;20216;-55
2022/06/29 04:53:22;;;;;;;6.85;6.35;;;;;;;;;;5075713;28;20200;-56
2022/06/29 04:55:56;;;;;;;7.22;6.72;;;;;;;;;;5075883;28;20266;-56
2022/06/29 04:58:24;;;;;;;6.57;6.10;;;;;;;;;;5075820;28;20223;-56
2022/06/29 05:00:54;;;;;;;7.05;6.55;;;;;;;;;;5058317;28;20204;-55
2022/06/29 05:03:23;;;;;;;7.10;6.70;;;;;;;;;;5075912;28;20204;-55
2022/06/29 05:05:54;;;;;;;7.13;6.63;;;;;;;;;;5075709;28;20587;-56
2022/06/29 05:08:24;;;;;;;7.07;6.57;;;;;;;;;;5058971;28;20205;-55
2022/06/29 05:10:55;;;;;;;6.97;6.50;;;;;;;;;;5055187;28;20274;-55
2022/06/29 05:13:26;;;;;;;6.85;6.45;;;;;;;;;;5074161;28;20203;-56
2022/06/29 05:15:54;;;;;;;6.80;6.30;;;;;;;;;;5075258;28;20561;-55
2022/06/29 05:18:22;;;;;;;7.60;7.00;;;;;;;;;;5059904;28;20224;-56
2022/06/29 05:20:50;;;;;;;7.68;6.95;;;;;;;;;;5055946;28;20268;-57
2022/06/29 05:23:18;;;;;;;6.95;6.45;;;;;;;;;;5054762;28;20236;-56
2022/06/29 05:25:49;;;;;;;6.75;6.35;;;;;;;;;;5054580;28;20659;-56
2022/06/29 05:28:20;;;;;;;7.60;7.05;;;;;;;;;;5058822;28;20205;-56
2022/06/29 05:30:49;;;;;;;7.65;7.15;;;;;;;;;;5059204;28;20292;-55
2022/06/29 05:33:36;;;;;;;7.20;6.70;;;;;;;;;;5058780;28;20236;-55
2022/06/29 05:36:06;;;;;;;7.82;7.32;;;;;;;;;;5058488;28;20287;-55
2022/06/29 05:38:34;;;;;;;7.40;6.90;;;;;;;;;;5073759;28;20226;-56
2022/06/29 05:41:02;;;;;;;6.90;6.40;;;;;;;;;;5078488;28;20211;-56
2022/06/29 05:43:31;;;;;;;7.50;7.00;;;;;;;;;;5077355;28;20603;-57
2022/06/29 05:45:59;;;;;;;7.20;6.70;;;;;;;;;;5077755;28;20295;-56
2022/06/29 05:48:27;;;;;;;7.50;6.93;;;;;;;;;;5062672;28;20255;-56
2022/06/29 05:50:55;;;;;;;7.28;6.78;;;;;;;;;;5058004;28;20266;-56
2022/06/29 05:53:23;;;;;;;7.15;6.65;;;;;;;;;;5057503;28;20656;-56
2022/06/29 05:55:50;;;;;;;6.75;6.15;;;;;;;;;;5058571;28;20205;-56
2022/06/29 05:58:20;;;;;;;7.68;7.07;;;;;;;;;;5070809;28;20220;-56
2022/06/29 06:00:49;;;;;;;7.20;6.70;;;;;;;;;;5077039;28;20492;-56
2022/06/29 06:03:18;;;;;;;7.18;6.57;;;;;;;;;;5078042;28;20243;-56
2022/06/29 06:05:46;;;;;;;7.22;6.63;;;;;;;;;;5078351;28;20204;-56
2022/06/29 06:08:15;;;;;;;7.75;6.57;;;;;;;;;;5077389;28;20201;-56
2022/06/29 06:10:43;;;;;;;6.80;6.20;;;;;;;;;;5078215;28;20196;-56
2022/06/29 06:13:10;;;;;;;7.50;7.00;;;;;;;;;;5078156;28;20303;-56
2022/06/29 06:15:38;;;;;;;7.07;6.68;;;;;;;;;;5077917;28;20200;-56
2022/06/29 06:18:07;;;;;;;7.28;6.78;;;;;;;;;;5065572;28;20881;-56
2022/06/29 06:20:36;;;;;;;7.53;6.97;;;;;;;;;;5057663;28;20225;-56
2022/06/29 06:23:03;;;;;;;7.40;6.80;;;;;;;;;;5057593;28;20209;-56
2022/06/29 06:25:31;;;;;;;6.90;6.50;;;;;;;;;;5058870;28;20287;-55
2022/06/29 06:28:00;;;;;;;7.82;7.32;;;;;;;;;;5074205;28;20500;-56
2022/06/29 06:30:27;;;;;;;7.80;7.10;;;;;;;;;;5077845;28;20211;-56
2022/06/29 06:32:55;;;;;;;8.18;7.60;;;;;;;;;;5077594;28;20200;-56
2022/06/29 06:35:24;;;;;;;7.72;7.18;;;;;;;;;;5077625;28;20282;-56
2022/06/29 06:37:52;;;;;;;7.50;7.00;;;;;;;;;;5067199;28;20233;-56
2022/06/29 06:43:05;;;;;;;7.75;7.15;;;;;;;;;;5057271;28;20607;-56
2022/06/29 06:45:33;;;;;;;8.00;7.22;;;;;;;;;;5056846;28;20581;-56
2022/06/29 06:48:02;;;;;;;7.40;6.80;;;;;;;;;;5066147;28;20502;-56
2022/06/29 06:50:31;;;;;;;8.00;7.47;;;;;;;;;;5076141;28;20286;-56
2022/06/29 06:52:58;;;;;;;7.43;6.93;;;;;;;;;;5076610;28;20266;-56
2022/06/29 06:55:26;;;;;;;7.38;6.82;;;;;;;;;;5076656;28;20212;-56
2022/06/29 06:57:53;;;;;;;8.15;7.55;;;;;;;;;;5069599;28;20631;-56
2022/06/29 07:00:21;;;;;;;7.57;7.07;;;;;;;;;;5076366;28;20242;-56
2022/06/29 07:02:49;;;;;;;7.95;7.45;;;;;;;;;;5075902;28;20515;-56
2022/06/29 07:05:17;;;;;;;8.10;7.50;;;;;;;;;;5073430;28;20200;-56
2022/06/29 07:07:46;;;;;;;7.70;7.10;;;;;;;;;;5075586;28;20205;-56
2022/06/29 07:10:14;;;;;;;7.78;7.28;;;;;;;;;;5075960;28;20208;-56
2022/06/29 07:12:41;;;;;;;7.68;7.18;;;;;;;;;;5075846;28;20200;-64
2022/06/29 07:15:09;;;;;;;7.82;7.32;;;;;;;;;;5073347;28;20274;-57
2022/06/29 07:17:37;;;;;;;7.82;7.22;;;;;;;;;;5075823;28;20607;-56
2022/06/29 07:20:06;;;;;;;7.78;7.28;;;;;;;;;;5075953;28;20215;-57
2022/06/29 07:22:33;;;;;;;7.63;7.13;;;;;;;;;;5075546;28;20208;-57
2022/06/29 07:25:02;;;;;;;7.93;7.25;;;;;;;;;;5074865;28;20204;-55
2022/06/29 07:27:30;;;;;;;8.30;7.70;;;;;;;;;;5075669;28;20631;-56
2022/06/29 07:29:58;;;;;;;7.68;7.07;;;;;;;;;;5075696;28;20261;-56
2022/06/29 07:32:26;;;;;;;7.45;6.95;;;;;;;;;;5076074;28;20204;-56
2022/06/29 07:34:54;;;;;;;8.05;7.40;;;;;;;;;;5076450;28;20208;-56
2022/06/29 07:37:21;;;;;;;7.90;7.30;;;;;;;;;;5072644;28;20620;-56
2022/06/29 07:39:49;;;;;;;7.75;7.10;;;;;;;;;;5055978;28;20697;-56
2022/06/29 07:42:19;;;;;;;8.48;7.88;;;;;;;;;;5055459;28;20299;-56
2022/06/29 07:44:46;;;;;;;8.40;7.80;;;;;;;;;;5055910;28;20240;-57
2022/06/29 07:47:13;;;;;;;7.88;7.32;;;;;;;;;;5056937;28;20245;-58
2022/06/29 07:49:41;;;;;;;8.13;7.50;;;;;;;;;;5074331;28;20200;-56
2022/06/29 07:52:09;;;;;;;8.73;7.97;;;;;;;;;;5075320;28;20204;-56
2022/06/29 07:54:37;;;;;;;8.52;7.93;;;;;;;;;;5075423;28;20196;-57
2022/06/29 07:57:05;;;;;;;8.15;7.50;;;;;;;;;;5059516;28;20282;-56
2022/06/29 07:59:34;;;;;;;8.32;7.72;;;;;;;;;;5064678;28;20247;-56
2022/06/29 08:02:01;;;;;;;8.45;7.85;;;;;;;;;;5075409;28;20552;-56
2022/06/29 08:04:29;;;;;;;8.02;7.40;;;;;;;;;;5075739;28;20220;-56
2022/06/29 08:06:56;;;;;;;8.90;8.30;;;;;;;;;;5074099;28;20611;-56
2022/06/29 08:09:24;;;;;;;8.82;8.18;;;;;;;;;;5075549;28;20253;-56
2022/06/29 08:11:52;;;;;;;8.55;7.85;;;;;;;;;;5075662;28;20240;-56
2022/06/29 08:14:20;;;;;;;8.18;7.60;;;;;;;;;;5074636;28;20204;-56
2022/06/29 08:16:49;;;;;;;8.45;7.75;;;;;;;;;;5073262;28;20196;-57
2022/06/29 08:19:16;;;;;;;8.32;7.65;;;;;;;;;;5076260;28;20235;-56
2022/06/29 08:21:44;;;;;;;9.27;8.48;;;;;;;;;;5075502;28;20204;-56
2022/06/29 08:24:12;;;;;;;8.95;8.15;;;;;;;;;;5075853;28;20259;-56
2022/06/29 08:26:40;;;;;;;9.93;8.98;;;;;;;;;;5063668;28;20291;-56
2022/06/29 08:29:07;;;;;;;9.27;8.48;;;;;;;;;;5055486;28;20259;-56
2022/06/29 08:31:34;;;;;;;9.23;8.32;;;;;;;;;;5054806;28;20213;-55
2022/06/29 08:34:03;;;;;;;9.40;8.55;;;;;;;;;;5055270;28;20493;-56
2022/06/29 08:36:31;;;;;;;9.13;8.25;;;;;;;;;;5063059;28;20298;-56
2022/06/29 08:39:00;;;;;;;8.93;8.13;;;;;;;;;;5075233;28;20322;-56
2022/06/29 08:41:28;;;;;;;9.65;8.85;;;;;;;;;;5073924;28;20599;-56
2022/06/29 08:43:57;;;;;;;9.77;9.00;;;;;;;;;;5074615;28;20200;-56
2022/06/29 08:46:24;;;;;;;10.07;9.27;;;;;;;;;;5066231;28;20209;-56
2022/06/29 08:48:52;;;;;;;9.60;8.90;;;;;;;;;;5054416;28;20201;-55
2022/06/29 08:51:22;;;;;;;9.32;8.63;;;;;;;;;;5054786;28;20481;-56
2022/06/29 08:53:51;;;;;;;9.77;8.98;;;;;;;;;;5055104;28;20213;-56
2022/06/29 08:56:19;;;;;;;9.52;8.80;;;;;;;;;;5061745;28;20208;-56
2022/06/29 08:58:49;;;;;;;9.70;8.90;;;;;;;;;;5074124;28;20289;-56
2022/06/29 09:01:17;;;;;;;9.57;8.75;;;;;;;;;;5077736;28;20645;-56
2022/06/29 09:03:46;;;;;;;9.50;8.70;;;;;;;;;;5079556;28;20204;-56
2022/06/29 09:06:14;;;;;;;9.52;8.88;;;;;;;;;;5072649;28;20203;-56
2022/06/29 09:08:43;;;;;;;10.30;9.50;;;;;;;;;;5059286;28;20211;-56
2022/06/29 09:11:25;;;;;;;9.45;8.75;;;;;;;;;;5060051;28;20307;-56
2022/06/29 09:14:20;;;;;;;9.40;8.70;;;;;;;;;;5057413;28;20326;-56
2022/06/29 09:16:58;;;;;;;9.77;8.98;;;;;;;;;;5033755;28;20471;-56
2022/06/29 09:19:27;;;;;;;10.30;9.30;;;;;;;;;;5077980;28;20293;-56
2022/06/29 09:21:55;;;;;;;10.05;9.18;;;;;;;;;;5078142;28;20206;-56
2022/06/29 09:24:25;;;;;;;10.40;9.50;;;;;;;;;;5078511;28;20212;-56
2022/06/29 09:26:53;;;;;;;10.25;9.48;;;;;;;;;;5076814;28;20514;-56
2022/06/29 09:29:21;;;;;;;10.15;9.35;;;;;;;;;;5077723;28;20211;-55
2022/06/29 09:32:16;;;;;;;9.40;8.70;;;;;;;;;;5078656;28;20204;-56
2022/06/29 09:34:45;;;;;;;10.00;9.27;;;;;;;;;;5031052;28;20200;-56
2022/06/29 09:37:13;;;;;;;10.52;9.73;;;;;;;;;;5077570;28;20338;-56
2022/06/29 09:39:43;;;;;;;10.85;10.05;;;;;;;;;;5077795;28;20611;-55
2022/06/29 09:42:11;;;;;;;10.35;9.45;;;;;;;;;;5077785;28;20553;-56
2022/06/29 09:44:40;;;;;;;10.73;9.82;;;;;;;;;;5077483;28;20680;-56
2022/06/29 09:47:08;;;;;;;10.15;9.35;;;;;;;;;;5065042;28;20197;-56
2022/06/29 09:49:37;;;;;;;10.40;9.50;;;;;;;;;;5056957;28;20197;-56
2022/06/29 09:52:05;;;;;;;9.40;8.70;;;;;;;;;;5057995;28;20220;-56
2022/06/29 09:54:34;;;;;;;10.07;9.18;;;;;;;;;;5058042;28;20221;-56
2022/06/29 09:57:04;;;;;;;10.30;9.40;;;;;;;;;;5068580;28;20200;-56
2022/06/29 10:05:05;;;;;;;10.40;9.52;;;;;;;;;;5077638;28;20633;-56
2022/06/29 10:07:34;;;;;;;9.43;8.63;;;;;;;;;;5061099;28;20688;-56
2022/06/29 10:10:02;;;;;;;10.13;9.20;;;;;;;;;;5058068;28;20269;-56
2022/06/29 10:15:27;;;;;;;9.73;9.02;;;;;;;;;;5056547;28;20335;-57
2022/06/29 10:17:57;;;;;;;9.70;8.90;;;;;;;;;;5075431;28;20193;-56
2022/06/29 10:20:29;;;;;;;9.23;8.52;;;;;;;;;;5076436;28;20224;-57
2022/06/29 10:22:57;;;;;;;9.52;8.82;;;;;;;;;;5076625;28;20203;-56
2022/06/29 10:25:27;;;;;;;9.38;8.57;;;;;;;;;;5076477;28;20226;-56
2022/06/29 10:28:16;;;;;;;11.05;10.07;;;;;;;;;;5057704;28;20298;-56
2022/06/29 10:30:45;;;;;;;9.82;9.07;;;;;;;;;;5056808;28;20201;-56
2022/06/29 10:33:37;;;;;;;10.05;9.18;;;;;;;;;;5056472;28;20209;-56
2022/06/29 10:36:06;;;;;;;10.35;9.55;;;;;;;;;;5044604;28;20258;-56
2022/06/29 10:38:57;;;;;;;9.90;9.00;;;;;;;;;;5075792;28;20302;-57
2022/06/29 10:44:10;;;;;;;9.65;8.95;;;;;;;;;;5075956;28;20191;-56
2022/06/29 10:46:53;;;;;;;11.45;10.52;;;;;;;;;;5068835;28;20240;-56
2022/06/29 10:49:21;;;;;;;11.40;10.48;;;;;;;;;;5056468;28;20232;-56
2022/06/29 10:51:49;;;;;;;11.77;10.88;;;;;;;;;;5056356;28;20200;-56
2022/06/29 10:54:24;;;;;;;10.35;9.50;;;;;;;;;;5056752;28;20248;-56
2022/06/29 10:56:53;;;;;;;12.30;11.30;;;;;;;;;;5064728;28;20216;-57
2022/06/29 10:59:34;;;;;;;10.18;9.45;;;;;;;;;;5076348;28;20269;-56
2022/06/29 11:02:12;;;;;;;10.55;9.65;;;;;;;;;;5076052;28;20239;-56
2022/06/29 11:04:39;;;;;;;11.55;10.55;;;;;;;;;;5075706;28;20200;-56
2022/06/29 11:12:47;;;;;;;10.85;10.02;;;;;;;;;;5054663;28;20247;-56
2022/06/29 11:15:42;;;;;;;10.60;9.70;;;;;;;;;;5055467;28;20494;-56
2022/06/29 11:18:11;;;;;;;10.35;9.55;;;;;;;;;;5075061;28;20311;-56
2022/06/29 11:20:39;;;;;;;11.10;10.20;;;;;;;;;;5076379;28;20599;-56
2022/06/29 11:23:11;;;;;;;11.38;10.48;;;;;;;;;;5075273;28;20269;-56
2022/06/29 11:25:39;;;;;;;10.73;9.85;;;;;;;;;;5076216;28;20211;-56
2022/06/29 11:28:06;;;;;;;11.18;10.38;;;;;;;;;;5056923;28;20480;-56
2022/06/29 11:30:36;;;;;;;11.27;10.38;;;;;;;;;;5056409;28;20295;-56
2022/06/29 11:33:10;;;;;;;10.32;9.52;;;;;;;;;;5055250;28;20208;-56
2022/06/29 11:35:42;;;;;;;12.60;11.50;;;;;;;;;;5055638;28;20207;-56
2022/06/29 11:38:11;;;;;;;11.70;10.75;;;;;;;;;;5074305;28;20293;-56
2022/06/29 11:40:41;;;;;;;11.05;10.15;;;;;;;;;;5074355;28;20307;-56
2022/06/29 11:43:09;;;;;;;10.52;9.63;;;;;;;;;;5074804;28;20204;-56
2022/06/29 11:45:39;;;;;;;10.50;9.60;;;;;;;;;;5075183;28;20293;-58
2022/06/29 11:48:14;;;;;;;10.65;9.85;;;;;;;;;;5056699;28;20553;-56
2022/06/29 11:50:45;;;;;;;10.15;9.38;;;;;;;;;;5055443;28;20801;-56
2022/06/29 11:53:13;;;;;;;10.60;9.70;;;;;;;;;;5055669;28;20593;-56
2022/06/29 11:55:42;;;;;;;10.80;9.95;;;;;;;;;;5055632;28;20235;-56
2022/06/29 11:58:15;;;;;;;10.80;10.00;;;;;;;;;;5072846;28;20204;-56
2022/06/29 12:00:45;;;;;;;12.13;11.02;;;;;;;;;;5075108;28;20235;-56
2022/06/29 12:03:14;;;;;;;11.95;11.00;;;;;;;;;;5075375;28;20200;-56
2022/06/29 12:05:55;;;;;;;13.40;12.40;;;;;;;;;;5075101;28;20239;-56
2022/06/29 12:08:23;;;;;;;13.65;12.55;;;;;;;;;;5053855;28;20219;-56
2022/06/29 12:10:51;;;;;;;13.25;12.10;;;;;;;;;;5054770;28;20495;-56
2022/06/29 12:13:18;;;;;;;12.52;11.43;;;;;;;;;;5054582;28;20205;-56
2022/06/29 12:15:48;;;;;;;12.85;11.88;;;;;;;;;;5055295;28;20615;-56
2022/06/29 12:18:16;;;;;;;14.80;13.63;;;;;;;;;;5072906;28;20273;-58
2022/06/29 12:20:43;;;;;;;13.52;12.43;;;;;;;;;;5075224;28;20224;-58
2022/06/29 12:23:11;;;;;;;12.63;11.70;;;;;;;;;;5074567;28;20265;-56
2022/06/29 12:25:39;;;;;;;12.10;11.20;;;;;;;;;;5074105;28;20235;-56
2022/06/29 12:28:09;;;;;;;12.15;11.25;;;;;;;;;;5073696;28;20588;-56
2022/06/29 12:30:38;;;;;;;11.93;11.02;;;;;;;;;;5074203;28;20207;-56
2022/06/29 12:33:09;;;;;;;13.43;12.32;;;;;;;;;;5074534;28;20208;-58
2022/06/29 12:35:37;;;;;;;12.02;10.93;;;;;;;;;;5074211;28;20211;-56
2022/06/29 12:38:05;;;;;;;11.77;10.88;;;;;;;;;;5057030;28;20233;-56
2022/06/29 12:40:32;;;;;;;12.18;11.18;;;;;;;;;;5054511;28;20286;-56
2022/06/29 12:43:00;;;;;;;12.27;11.35;;;;;;;;;;5054948;28;20204;-56
2022/06/29 12:45:28;;;;;;;12.38;11.48;;;;;;;;;;5054264;28;20240;-56
2022/06/29 12:47:56;;;;;;;12.85;11.88;;;;;;;;;;5069220;28;20208;-56
2022/06/29 12:50:25;;;;;;;11.88;10.98;;;;;;;;;;5075493;28;20224;-56
2022/06/29 12:52:53;;;;;;;11.52;10.63;;;;;;;;;;5073593;28;20257;-56
2022/06/29 12:55:21;;;;;;;11.77;10.88;;;;;;;;;;5074092;28;20307;-56
2022/06/29 12:57:50;;;;;;;12.32;11.43;;;;;;;;;;5071039;28;20189;-56
2022/06/29 13:00:17;;;;;;;12.32;11.32;;;;;;;;;;5073679;28;20316;-56
2022/06/29 13:02:45;;;;;;;12.88;11.63;;;;;;;;;;5073798;28;20787;-56
2022/06/29 13:05:13;;;;;;;11.38;10.57;;;;;;;;;;5074035;28;20204;-56
2022/06/29 13:07:41;;;;;;;11.15;10.35;;;;;;;;;;5072313;28;20265;-56
2022/06/29 13:10:11;;;;;;;12.25;11.23;;;;;;;;;;5073883;28;20226;-56
2022/06/29 13:12:38;;;;;;;12.00;11.10;;;;;;;;;;5073183;28;20200;-56
2022/06/29 13:15:06;;;;;;;13.40;12.30;;;;;;;;;;5073660;28;20600;-57
2022/06/29 13:17:34;;;;;;;11.80;10.95;;;;;;;;;;5061071;28;20313;-56
2022/06/29 13:20:02;;;;;;;12.43;11.38;;;;;;;;;;5053001;28;20260;-56
2022/06/29 13:22:29;;;;;;;12.27;11.27;;;;;;;;;;5054271;28;20308;-56
2022/06/29 13:24:59;;;;;;;11.98;11.07;;;;;;;;;;5053717;28;20327;-56
2022/06/29 13:27:26;;;;;;;11.82;10.93;;;;;;;;;;5063621;28;20232;-56
2022/06/29 13:29:54;;;;;;;12.50;11.48;;;;;;;;;;5073020;28;20207;-56
2022/06/29 13:32:21;;;;;;;11.32;10.43;;;;;;;;;;5073229;28;20200;-56
2022/06/29 13:34:49;;;;;;;12.05;11.05;;;;;;;;;;5073478;28;20258;-56
2022/06/29 13:37:16;;;;;;;11.13;10.23;;;;;;;;;;5064558;28;20228;-56
2022/06/29 13:39:44;;;;;;;12.05;11.15;;;;;;;;;;5053164;28;20204;-56
2022/06/29 13:42:13;;;;;;;11.30;10.40;;;;;;;;;;5053027;28;20259;-56
2022/06/29 13:44:40;;;;;;;11.63;10.73;;;;;;;;;;5052728;28;20201;-56
2022/06/29 13:47:08;;;;;;;11.68;10.75;;;;;;;;;;5060527;28;20201;-56
2022/06/29 13:49:36;;;;;;;11.07;10.18;;;;;;;;;;5076338;28;20254;-56
2022/06/29 13:52:04;;;;;;;11.20;10.30;;;;;;;;;;5077245;28;20204;-56
2022/06/29 13:54:33;;;;;;;11.27;10.38;;;;;;;;;;5077049;28;20231;-57
2022/06/29 13:57:00;;;;;;;11.77;10.88;;;;;;;;;;5069820;28;20227;-56
2022/06/29 13:59:29;;;;;;;11.57;10.68;;;;;;;;;;5056274;28;20272;-56
2022/06/29 14:01:57;;;;;;;12.02;11.13;;;;;;;;;;5056080;28;20327;-56
2022/06/29 14:04:25;;;;;;;11.23;10.32;;;;;;;;;;5056470;28;20205;-56
2022/06/29 14:06:53;;;;;;;11.40;10.48;;;;;;;;;;5060547;28;20198;-56
2022/06/29 14:09:21;;;;;;;11.90;11.00;;;;;;;;;;5076355;28;20218;-56
2022/06/29 14:11:49;;;;;;;11.40;10.50;;;;;;;;;;5075830;28;20204;-56
2022/06/29 14:14:18;;;;;;;12.00;11.00;;;;;;;;;;5075862;28;20217;-57
2022/06/29 14:16:47;;;;;;;11.80;10.70;;;;;;;;;;5072914;28;20684;-56
2022/06/29 14:19:15;;;;;;;11.13;10.32;;;;;;;;;;5055042;28;20228;-57
2022/06/29 14:21:42;;;;;;;11.25;10.35;;;;;;;;;;5069715;28;20227;-56
2022/06/29 14:24:10;;;;;;;10.77;9.88;;;;;;;;;;5076418;28;20242;-56
2022/06/29 14:26:38;;;;;;;11.48;10.57;;;;;;;;;;5075358;28;20651;-56
2022/06/29 14:29:06;;;;;;;11.05;10.05;;;;;;;;;;5075736;28;20204;-56
2022/06/29 14:31:34;;;;;;;11.07;9.95;;;;;;;;;;5076153;28;20250;-56
2022/06/29 14:34:03;;;;;;;10.45;9.60;;;;;;;;;;5076349;28;20219;-56
2022/06/29 14:36:31;;;;;;;11.65;10.65;;;;;;;;;;5074649;28;20240;-56
2022/06/29 14:39:00;;;;;;;10.63;9.73;;;;;;;;;;5057206;28;20204;-56
2022/06/29 14:41:30;;;;;;;11.05;10.05;;;;;;;;;;5056381;28;20756;-56
2022/06/29 14:43:58;;;;;;;10.30;9.50;;;;;;;;;;5056239;28;20208;-56
2022/06/29 14:46:26;;;;;;;10.30;9.50;;;;;;;;;;5055600;28;20288;-56
2022/06/29 14:48:53;;;;;;;10.15;9.35;;;;;;;;;;5076636;28;20308;-56
2022/06/29 14:51:22;;;;;;;10.13;9.23;;;;;;;;;;5075816;28;20197;-56
2022/06/29 14:53:50;;;;;;;9.82;9.02;;;;;;;;;;5075500;28;20712;-56
2022/06/29 14:56:19;;;;;;;10.18;9.38;;;;;;;;;;5076217;28;20208;-56
2022/06/29 14:58:48;;;;;;;9.98;9.18;;;;;;;;;;5054848;28;20710;-56
2022/06/29 15:01:16;;;;;;;10.48;9.63;;;;;;;;;;5056607;28;20336;-57
2022/06/29 15:03:44;;;;;;;11.80;10.70;;;;;;;;;;5056422;28;20735;-56
2022/06/29 15:06:12;;;;;;;10.35;9.55;;;;;;;;;;5056531;28;20739;-56
2022/06/29 15:08:42;;;;;;;10.63;9.63;;;;;;;;;;5074211;28;20240;-56
2022/06/29 15:11:10;;;;;;;10.20;9.40;;;;;;;;;;5076211;28;20736;-56
2022/06/29 15:13:38;;;;;;;10.02;9.18;;;;;;;;;;5076116;28;20689;-56
2022/06/29 15:16:06;;;;;;;10.25;9.45;;;;;;;;;;5075815;28;20204;-56